sensor_id;sensor_type;location;lat;lon;timestamp;P1;durP1;ratioP1;P2;durP2;ratioP2
65393;SDS011;52002;49.760;6.512;2023-06-22T00:02:05;5.30;;;4.10;;
65393;SDS011;52002;49.760;6.512;2023-06-22T00:04:30;7.90;;;4.30;;
65393;SDS011;52002;49.760;6.512;2023-06-22T00:06:56;6.80;;;4.00;;
65393;SDS011;52002;49.760;6.512;2023-06-22T00:09:21;7.70;;;4.10;;
65393;SDS011;52002;49.760;6.512;2023-06-22T00:11:46;10.00;;;4.30;;
65393;SDS011;52002;49.760;6.512;2023-06-22T00:14:12;6.50;;;4.00;;
65393;SDS011;52002;49.760;6.512;2023-06-22T00:16:37;7.40;;;4.70;;
65393;SDS011;52002;49.760;6.512;2023-06-22T00:19:02;9.10;;;4.20;;
65393;SDS011;52002;49.760;6.512;2023-06-22T00:21:28;8.70;;;4.80;;
65393;SDS011;52002;49.760;6.512;2023-06-22T00:23:54;7.60;;;4.70;;
65393;SDS011;52002;49.760;6.512;2023-06-22T00:26:20;10.50;;;4.80;;
65393;SDS011;52002;49.760;6.512;2023-06-22T00:28:46;7.70;;;4.70;;
65393;SDS011;52002;49.760;6.512;2023-06-22T00:31:12;7.10;;;4.60;;
65393;SDS011;52002;49.760;6.512;2023-06-22T00:33:38;8.70;;;4.50;;
65393;SDS011;52002;49.760;6.512;2023-06-22T00:36:03;6.20;;;4.50;;
65393;SDS011;52002;49.760;6.512;2023-06-22T00:38:30;7.00;;;4.80;;
65393;SDS011;52002;49.760;6.512;2023-06-22T00:40:55;9.70;;;4.90;;
65393;SDS011;52002;49.760;6.512;2023-06-22T00:43:20;7.40;;;4.60;;
65393;SDS011;52002;49.760;6.512;2023-06-22T00:45:46;6.60;;;4.30;;
65393;SDS011;52002;49.760;6.512;2023-06-22T00:48:12;6.90;;;4.20;;
65393;SDS011;52002;49.760;6.512;2023-06-22T00:50:40;7.70;;;4.70;;
65393;SDS011;52002;49.760;6.512;2023-06-22T00:53:06;13.50;;;5.00;;
65393;SDS011;52002;49.760;6.512;2023-06-22T00:55:33;8.40;;;4.60;;
65393;SDS011;52002;49.760;6.512;2023-06-22T00:58:04;9.20;;;4.60;;
65393;SDS011;52002;49.760;6.512;2023-06-22T01:03:01;6.60;;;4.90;;
65393;SDS011;52002;49.760;6.512;2023-06-22T01:05:27;9.20;;;4.70;;
65393;SDS011;52002;49.760;6.512;2023-06-22T01:08:00;6.40;;;4.40;;
65393;SDS011;52002;49.760;6.512;2023-06-22T01:19:06;8.50;;;5.30;;
65393;SDS011;52002;49.760;6.512;2023-06-22T01:21:44;7.70;;;4.40;;
65393;SDS011;52002;49.760;6.512;2023-06-22T01:29:17;9.00;;;4.90;;
65393;SDS011;52002;49.760;6.512;2023-06-22T01:31:44;7.10;;;5.00;;
65393;SDS011;52002;49.760;6.512;2023-06-22T01:34:10;6.90;;;5.20;;
65393;SDS011;52002;49.760;6.512;2023-06-22T01:36:37;11.90;;;4.90;;
65393;SDS011;52002;49.760;6.512;2023-06-22T01:39:04;6.10;;;5.10;;
65393;SDS011;52002;49.760;6.512;2023-06-22T01:41:35;7.20;;;4.70;;
65393;SDS011;52002;49.760;6.512;2023-06-22T01:44:03;13.30;;;5.30;;
65393;SDS011;52002;49.760;6.512;2023-06-22T01:46:33;5.60;;;4.40;;
65393;SDS011;52002;49.760;6.512;2023-06-22T01:49:00;6.40;;;5.30;;
65393;SDS011;52002;49.760;6.512;2023-06-22T01:51:29;8.20;;;5.70;;
65393;SDS011;52002;49.760;6.512;2023-06-22T01:53:55;11.50;;;5.70;;
65393;SDS011;52002;49.760;6.512;2023-06-22T01:56:20;6.20;;;5.40;;
65393;SDS011;52002;49.760;6.512;2023-06-22T01:58:57;6.10;;;4.70;;
65393;SDS011;52002;49.760;6.512;2023-06-22T02:01:47;6.50;;;5.00;;
65393;SDS011;52002;49.760;6.512;2023-06-22T02:04:20;7.20;;;5.50;;
65393;SDS011;52002;49.760;6.512;2023-06-22T02:06:49;7.20;;;5.80;;
65393;SDS011;52002;49.760;6.512;2023-06-22T02:09:19;9.20;;;5.80;;
65393;SDS011;52002;49.760;6.512;2023-06-22T02:11:47;7.70;;;5.60;;
65393;SDS011;52002;49.760;6.512;2023-06-22T02:14:16;8.00;;;5.20;;
65393;SDS011;52002;49.760;6.512;2023-06-22T02:16:43;13.10;;;5.10;;
65393;SDS011;52002;49.760;6.512;2023-06-22T02:19:09;5.50;;;4.80;;
65393;SDS011;52002;49.760;6.512;2023-06-22T02:21:34;10.50;;;6.00;;
65393;SDS011;52002;49.760;6.512;2023-06-22T02:23:59;6.50;;;5.60;;
65393;SDS011;52002;49.760;6.512;2023-06-22T02:26:25;9.90;;;5.90;;
65393;SDS011;52002;49.760;6.512;2023-06-22T02:28:51;8.90;;;6.10;;
65393;SDS011;52002;49.760;6.512;2023-06-22T02:31:17;7.40;;;5.30;;
65393;SDS011;52002;49.760;6.512;2023-06-22T02:33:43;8.20;;;5.50;;
65393;SDS011;52002;49.760;6.512;2023-06-22T02:36:09;8.50;;;5.20;;
65393;SDS011;52002;49.760;6.512;2023-06-22T02:38:38;9.30;;;5.50;;
65393;SDS011;52002;49.760;6.512;2023-06-22T02:41:04;7.40;;;5.60;;
65393;SDS011;52002;49.760;6.512;2023-06-22T02:43:29;7.60;;;5.80;;
65393;SDS011;52002;49.760;6.512;2023-06-22T02:45:55;7.20;;;6.00;;
65393;SDS011;52002;49.760;6.512;2023-06-22T02:48:20;8.90;;;5.60;;
65393;SDS011;52002;49.760;6.512;2023-06-22T02:50:46;9.40;;;5.60;;
65393;SDS011;52002;49.760;6.512;2023-06-22T02:53:11;7.50;;;5.60;;
65393;SDS011;52002;49.760;6.512;2023-06-22T02:55:36;6.80;;;6.10;;
65393;SDS011;52002;49.760;6.512;2023-06-22T02:58:04;9.10;;;6.30;;
65393;SDS011;52002;49.760;6.512;2023-06-22T03:00:30;8.70;;;6.60;;
65393;SDS011;52002;49.760;6.512;2023-06-22T03:02:56;12.30;;;6.60;;
65393;SDS011;52002;49.760;6.512;2023-06-22T03:05:23;8.10;;;6.00;;
65393;SDS011;52002;49.760;6.512;2023-06-22T03:07:48;6.20;;;5.60;;
65393;SDS011;52002;49.760;6.512;2023-06-22T03:10:14;8.60;;;5.50;;
65393;SDS011;52002;49.760;6.512;2023-06-22T03:12:40;10.30;;;6.10;;
65393;SDS011;52002;49.760;6.512;2023-06-22T03:15:08;13.40;;;5.60;;
65393;SDS011;52002;49.760;6.512;2023-06-22T03:17:35;10.90;;;6.40;;
65393;SDS011;52002;49.760;6.512;2023-06-22T03:20:01;8.90;;;6.80;;
65393;SDS011;52002;49.760;6.512;2023-06-22T03:22:35;7.50;;;5.50;;
65393;SDS011;52002;49.760;6.512;2023-06-22T03:25:01;7.40;;;5.60;;
65393;SDS011;52002;49.760;6.512;2023-06-22T03:27:27;7.00;;;5.50;;
65393;SDS011;52002;49.760;6.512;2023-06-22T03:29:52;9.30;;;5.90;;
65393;SDS011;52002;49.760;6.512;2023-06-22T03:32:18;7.30;;;5.90;;
65393;SDS011;52002;49.760;6.512;2023-06-22T03:34:43;9.00;;;6.20;;
65393;SDS011;52002;49.760;6.512;2023-06-22T03:37:11;8.30;;;6.40;;
65393;SDS011;52002;49.760;6.512;2023-06-22T03:39:38;6.90;;;5.80;;
65393;SDS011;52002;49.760;6.512;2023-06-22T03:42:03;13.50;;;6.30;;
65393;SDS011;52002;49.760;6.512;2023-06-22T03:44:29;6.50;;;5.60;;
65393;SDS011;52002;49.760;6.512;2023-06-22T03:46:54;7.50;;;5.70;;
65393;SDS011;52002;49.760;6.512;2023-06-22T03:49:20;11.00;;;6.00;;
65393;SDS011;52002;49.760;6.512;2023-06-22T03:51:45;7.90;;;6.30;;
65393;SDS011;52002;49.760;6.512;2023-06-22T03:54:10;12.20;;;6.40;;
65393;SDS011;52002;49.760;6.512;2023-06-22T03:56:36;7.00;;;6.30;;
65393;SDS011;52002;49.760;6.512;2023-06-22T03:59:02;9.50;;;6.20;;
65393;SDS011;52002;49.760;6.512;2023-06-22T04:01:27;10.40;;;5.50;;
65393;SDS011;52002;49.760;6.512;2023-06-22T04:03:52;11.20;;;6.20;;
65393;SDS011;52002;49.760;6.512;2023-06-22T04:06:17;7.50;;;5.60;;
65393;SDS011;52002;49.760;6.512;2023-06-22T04:08:44;10.10;;;5.90;;
65393;SDS011;52002;49.760;6.512;2023-06-22T04:11:13;9.30;;;6.20;;
65393;SDS011;52002;49.760;6.512;2023-06-22T04:13:38;8.20;;;5.70;;
65393;SDS011;52002;49.760;6.512;2023-06-22T04:16:04;11.50;;;6.00;;
65393;SDS011;52002;49.760;6.512;2023-06-22T04:18:29;7.10;;;5.50;;
65393;SDS011;52002;49.760;6.512;2023-06-22T04:20:54;10.30;;;6.90;;
65393;SDS011;52002;49.760;6.512;2023-06-22T04:23:20;13.40;;;6.80;;
65393;SDS011;52002;49.760;6.512;2023-06-22T04:25:45;15.80;;;6.40;;
65393;SDS011;52002;49.760;6.512;2023-06-22T04:28:10;11.10;;;6.50;;
65393;SDS011;52002;49.760;6.512;2023-06-22T04:30:37;8.10;;;6.00;;
65393;SDS011;52002;49.760;6.512;2023-06-22T04:33:12;14.00;;;6.00;;
65393;SDS011;52002;49.760;6.512;2023-06-22T04:35:38;8.00;;;5.40;;
65393;SDS011;52002;49.760;6.512;2023-06-22T04:38:06;9.70;;;5.30;;
65393;SDS011;52002;49.760;6.512;2023-06-22T04:40:32;8.60;;;5.80;;
65393;SDS011;52002;49.760;6.512;2023-06-22T04:42:58;10.30;;;6.00;;
65393;SDS011;52002;49.760;6.512;2023-06-22T04:45:27;15.40;;;5.70;;
65393;SDS011;52002;49.760;6.512;2023-06-22T04:47:54;11.40;;;6.20;;
65393;SDS011;52002;49.760;6.512;2023-06-22T04:50:20;10.40;;;5.30;;
65393;SDS011;52002;49.760;6.512;2023-06-22T04:52:47;9.60;;;5.30;;
65393;SDS011;52002;49.760;6.512;2023-06-22T04:55:13;6.40;;;5.00;;
65393;SDS011;52002;49.760;6.512;2023-06-22T04:57:43;9.30;;;5.10;;
65393;SDS011;52002;49.760;6.512;2023-06-22T05:00:17;9.10;;;5.40;;
65393;SDS011;52002;49.760;6.512;2023-06-22T05:02:44;10.80;;;5.90;;
65393;SDS011;52002;49.760;6.512;2023-06-22T05:05:11;11.50;;;5.60;;
65393;SDS011;52002;49.760;6.512;2023-06-22T05:07:41;7.20;;;5.80;;
65393;SDS011;52002;49.760;6.512;2023-06-22T05:10:09;10.10;;;5.90;;
65393;SDS011;52002;49.760;6.512;2023-06-22T05:12:36;9.80;;;5.80;;
65393;SDS011;52002;49.760;6.512;2023-06-22T05:15:02;11.80;;;5.10;;
65393;SDS011;52002;49.760;6.512;2023-06-22T05:17:28;7.60;;;5.00;;
65393;SDS011;52002;49.760;6.512;2023-06-22T05:19:54;8.70;;;5.00;;
65393;SDS011;52002;49.760;6.512;2023-06-22T05:22:20;9.10;;;5.10;;
65393;SDS011;52002;49.760;6.512;2023-06-22T05:24:45;6.20;;;5.10;;
65393;SDS011;52002;49.760;6.512;2023-06-22T05:27:11;11.40;;;5.60;;
65393;SDS011;52002;49.760;6.512;2023-06-22T05:29:37;9.40;;;5.20;;
65393;SDS011;52002;49.760;6.512;2023-06-22T05:32:03;11.00;;;5.10;;
65393;SDS011;52002;49.760;6.512;2023-06-22T05:34:28;5.70;;;4.70;;
65393;SDS011;52002;49.760;6.512;2023-06-22T05:36:54;11.10;;;5.20;;
65393;SDS011;52002;49.760;6.512;2023-06-22T05:39:19;10.50;;;5.20;;
65393;SDS011;52002;49.760;6.512;2023-06-22T05:41:45;8.60;;;5.00;;
65393;SDS011;52002;49.760;6.512;2023-06-22T05:44:11;6.50;;;4.40;;
65393;SDS011;52002;49.760;6.512;2023-06-22T05:46:39;8.50;;;4.40;;
65393;SDS011;52002;49.760;6.512;2023-06-22T05:49:09;7.60;;;4.70;;
65393;SDS011;52002;49.760;6.512;2023-06-22T05:51:35;8.60;;;4.00;;
65393;SDS011;52002;49.760;6.512;2023-06-22T05:54:00;13.50;;;4.40;;
65393;SDS011;52002;49.760;6.512;2023-06-22T05:56:25;7.40;;;4.40;;
65393;SDS011;52002;49.760;6.512;2023-06-22T05:58:51;10.30;;;4.30;;
65393;SDS011;52002;49.760;6.512;2023-06-22T06:01:16;7.80;;;4.70;;
65393;SDS011;52002;49.760;6.512;2023-06-22T06:03:41;8.90;;;5.10;;
65393;SDS011;52002;49.760;6.512;2023-06-22T06:06:07;10.40;;;4.90;;
65393;SDS011;52002;49.760;6.512;2023-06-22T06:08:33;11.40;;;4.80;;
65393;SDS011;52002;49.760;6.512;2023-06-22T06:10:58;5.40;;;4.40;;
65393;SDS011;52002;49.760;6.512;2023-06-22T06:13:24;10.10;;;4.60;;
65393;SDS011;52002;49.760;6.512;2023-06-22T06:15:49;4.80;;;4.30;;
65393;SDS011;52002;49.760;6.512;2023-06-22T06:18:16;7.30;;;4.40;;
65393;SDS011;52002;49.760;6.512;2023-06-22T06:20:42;6.50;;;4.50;;
65393;SDS011;52002;49.760;6.512;2023-06-22T06:23:07;6.90;;;4.90;;
65393;SDS011;52002;49.760;6.512;2023-06-22T06:25:33;10.50;;;4.50;;
65393;SDS011;52002;49.760;6.512;2023-06-22T06:27:58;10.00;;;4.50;;
65393;SDS011;52002;49.760;6.512;2023-06-22T06:30:23;10.20;;;5.00;;
65393;SDS011;52002;49.760;6.512;2023-06-22T06:32:49;8.30;;;5.00;;
65393;SDS011;52002;49.760;6.512;2023-06-22T06:35:15;7.00;;;4.20;;
65393;SDS011;52002;49.760;6.512;2023-06-22T06:37:45;9.80;;;4.70;;
65393;SDS011;52002;49.760;6.512;2023-06-22T06:40:13;11.10;;;4.40;;
65393;SDS011;52002;49.760;6.512;2023-06-22T06:42:43;10.20;;;4.70;;
65393;SDS011;52002;49.760;6.512;2023-06-22T06:45:20;7.90;;;4.40;;
65393;SDS011;52002;49.760;6.512;2023-06-22T06:47:51;5.60;;;4.90;;
65393;SDS011;52002;49.760;6.512;2023-06-22T06:50:17;9.30;;;4.60;;
65393;SDS011;52002;49.760;6.512;2023-06-22T06:52:43;6.90;;;4.50;;
65393;SDS011;52002;49.760;6.512;2023-06-22T06:55:09;6.90;;;4.60;;
65393;SDS011;52002;49.760;6.512;2023-06-22T06:57:37;9.50;;;4.80;;
65393;SDS011;52002;49.760;6.512;2023-06-22T07:00:04;4.90;;;4.30;;
65393;SDS011;52002;49.760;6.512;2023-06-22T07:02:35;5.50;;;4.60;;
65393;SDS011;52002;49.760;6.512;2023-06-22T07:05:01;9.30;;;4.30;;
65393;SDS011;52002;49.760;6.512;2023-06-22T07:07:28;5.10;;;4.60;;
65393;SDS011;52002;49.760;6.512;2023-06-22T07:09:54;7.60;;;4.30;;
65393;SDS011;52002;49.760;6.512;2023-06-22T07:12:19;4.90;;;4.40;;
65393;SDS011;52002;49.760;6.512;2023-06-22T07:14:44;4.90;;;4.50;;
65393;SDS011;52002;49.760;6.512;2023-06-22T07:17:10;5.10;;;4.50;;
65393;SDS011;52002;49.760;6.512;2023-06-22T07:19:35;6.50;;;3.90;;
65393;SDS011;52002;49.760;6.512;2023-06-22T07:22:00;6.40;;;3.90;;
65393;SDS011;52002;49.760;6.512;2023-06-22T07:24:26;8.50;;;4.40;;
65393;SDS011;52002;49.760;6.512;2023-06-22T07:26:52;6.70;;;4.50;;
65393;SDS011;52002;49.760;6.512;2023-06-22T07:29:17;5.00;;;4.50;;
65393;SDS011;52002;49.760;6.512;2023-06-22T07:31:44;6.60;;;4.80;;
65393;SDS011;52002;49.760;6.512;2023-06-22T07:34:10;6.40;;;4.90;;
65393;SDS011;52002;49.760;6.512;2023-06-22T07:36:35;5.70;;;4.60;;
65393;SDS011;52002;49.760;6.512;2023-06-22T07:39:01;6.40;;;4.80;;
65393;SDS011;52002;49.760;6.512;2023-06-22T07:41:28;8.60;;;5.30;;
65393;SDS011;52002;49.760;6.512;2023-06-22T07:43:54;5.80;;;5.10;;
65393;SDS011;52002;49.760;6.512;2023-06-22T07:46:19;5.60;;;5.00;;
65393;SDS011;52002;49.760;6.512;2023-06-22T07:48:44;5.40;;;4.90;;
65393;SDS011;52002;49.760;6.512;2023-06-22T07:51:10;5.30;;;4.80;;
65393;SDS011;52002;49.760;6.512;2023-06-22T07:53:41;5.50;;;4.90;;
65393;SDS011;52002;49.760;6.512;2023-06-22T07:56:09;5.50;;;5.00;;
65393;SDS011;52002;49.760;6.512;2023-06-22T07:58:35;4.90;;;4.10;;
65393;SDS011;52002;49.760;6.512;2023-06-22T08:01:01;5.90;;;4.40;;
65393;SDS011;52002;49.760;6.512;2023-06-22T08:03:27;7.60;;;4.10;;
65393;SDS011;52002;49.760;6.512;2023-06-22T08:05:52;4.40;;;4.00;;
65393;SDS011;52002;49.760;6.512;2023-06-22T08:08:18;5.10;;;4.00;;
65393;SDS011;52002;49.760;6.512;2023-06-22T08:10:43;5.10;;;3.90;;
65393;SDS011;52002;49.760;6.512;2023-06-22T08:13:08;4.10;;;3.70;;
65393;SDS011;52002;49.760;6.512;2023-06-22T08:15:35;7.10;;;4.00;;
65393;SDS011;52002;49.760;6.512;2023-06-22T08:18:00;4.60;;;4.10;;
65393;SDS011;52002;49.760;6.512;2023-06-22T08:20:26;5.80;;;4.50;;
65393;SDS011;52002;49.760;6.512;2023-06-22T08:22:52;8.20;;;4.80;;
65393;SDS011;52002;49.760;6.512;2023-06-22T08:25:19;7.70;;;4.70;;
65393;SDS011;52002;49.760;6.512;2023-06-22T08:27:46;6.80;;;4.90;;
65393;SDS011;52002;49.760;6.512;2023-06-22T08:30:12;6.00;;;4.40;;
65393;SDS011;52002;49.760;6.512;2023-06-22T08:32:38;4.90;;;4.30;;
65393;SDS011;52002;49.760;6.512;2023-06-22T08:35:04;10.00;;;4.30;;
65393;SDS011;52002;49.760;6.512;2023-06-22T08:37:32;10.00;;;4.40;;
65393;SDS011;52002;49.760;6.512;2023-06-22T08:40:00;9.80;;;4.80;;
65393;SDS011;52002;49.760;6.512;2023-06-22T08:42:26;6.50;;;4.50;;
65393;SDS011;52002;49.760;6.512;2023-06-22T08:44:52;4.90;;;4.30;;
65393;SDS011;52002;49.760;6.512;2023-06-22T08:47:18;8.30;;;4.80;;
65393;SDS011;52002;49.760;6.512;2023-06-22T08:49:45;7.40;;;4.30;;
65393;SDS011;52002;49.760;6.512;2023-06-22T08:52:10;6.60;;;4.60;;
65393;SDS011;52002;49.760;6.512;2023-06-22T08:54:36;6.40;;;4.70;;
65393;SDS011;52002;49.760;6.512;2023-06-22T08:57:01;6.40;;;4.30;;
65393;SDS011;52002;49.760;6.512;2023-06-22T08:59:27;8.10;;;4.60;;
65393;SDS011;52002;49.760;6.512;2023-06-22T09:01:53;11.90;;;4.90;;
65393;SDS011;52002;49.760;6.512;2023-06-22T09:04:19;7.60;;;4.70;;
65393;SDS011;52002;49.760;6.512;2023-06-22T09:06:47;23.20;;;5.80;;
65393;SDS011;52002;49.760;6.512;2023-06-22T09:09:16;35.30;;;7.30;;
65393;SDS011;52002;49.760;6.512;2023-06-22T09:11:41;20.20;;;7.30;;
65393;SDS011;52002;49.760;6.512;2023-06-22T09:14:07;16.30;;;6.70;;
65393;SDS011;52002;49.760;6.512;2023-06-22T09:16:34;17.30;;;6.20;;
65393;SDS011;52002;49.760;6.512;2023-06-22T09:18:59;18.70;;;6.80;;
65393;SDS011;52002;49.760;6.512;2023-06-22T09:21:25;12.60;;;6.30;;
65393;SDS011;52002;49.760;6.512;2023-06-22T09:23:50;18.30;;;7.00;;
65393;SDS011;52002;49.760;6.512;2023-06-22T09:26:19;26.90;;;7.70;;
65393;SDS011;52002;49.760;6.512;2023-06-22T09:28:45;15.70;;;6.20;;
65393;SDS011;52002;49.760;6.512;2023-06-22T09:31:11;18.80;;;6.10;;
65393;SDS011;52002;49.760;6.512;2023-06-22T09:33:36;13.90;;;5.80;;
65393;SDS011;52002;49.760;6.512;2023-06-22T09:36:08;9.40;;;6.50;;
65393;SDS011;52002;49.760;6.512;2023-06-22T09:38:37;18.80;;;6.50;;
65393;SDS011;52002;49.760;6.512;2023-06-22T09:41:03;14.10;;;6.30;;
65393;SDS011;52002;49.760;6.512;2023-06-22T09:43:29;16.40;;;6.10;;
65393;SDS011;52002;49.760;6.512;2023-06-22T09:45:56;13.60;;;6.30;;
65393;SDS011;52002;49.760;6.512;2023-06-22T09:48:21;14.50;;;6.10;;
65393;SDS011;52002;49.760;6.512;2023-06-22T09:50:47;11.80;;;6.00;;
65393;SDS011;52002;49.760;6.512;2023-06-22T09:53:12;8.80;;;6.10;;
65393;SDS011;52002;49.760;6.512;2023-06-22T09:55:37;8.50;;;5.60;;
65393;SDS011;52002;49.760;6.512;2023-06-22T09:58:03;15.60;;;6.30;;
65393;SDS011;52002;49.760;6.512;2023-06-22T10:00:28;12.50;;;6.20;;
65393;SDS011;52002;49.760;6.512;2023-06-22T10:02:53;12.20;;;6.50;;
65393;SDS011;52002;49.760;6.512;2023-06-22T10:05:20;16.80;;;6.10;;
65393;SDS011;52002;49.760;6.512;2023-06-22T10:07:46;13.70;;;6.40;;
65393;SDS011;52002;49.760;6.512;2023-06-22T10:10:12;12.10;;;6.90;;
65393;SDS011;52002;49.760;6.512;2023-06-22T10:12:48;11.80;;;6.00;;
65393;SDS011;52002;49.760;6.512;2023-06-22T10:15:20;9.80;;;6.30;;
65393;SDS011;52002;49.760;6.512;2023-06-22T10:17:46;9.70;;;6.40;;
65393;SDS011;52002;49.760;6.512;2023-06-22T10:20:12;8.70;;;6.60;;
65393;SDS011;52002;49.760;6.512;2023-06-22T10:22:41;12.80;;;6.50;;
65393;SDS011;52002;49.760;6.512;2023-06-22T10:25:09;15.90;;;6.50;;
65393;SDS011;52002;49.760;6.512;2023-06-22T10:27:35;10.60;;;6.40;;
65393;SDS011;52002;49.760;6.512;2023-06-22T10:30:01;12.30;;;6.50;;
65393;SDS011;52002;49.760;6.512;2023-06-22T10:32:26;9.40;;;5.90;;
65393;SDS011;52002;49.760;6.512;2023-06-22T10:34:53;9.30;;;6.30;;
65393;SDS011;52002;49.760;6.512;2023-06-22T10:37:19;7.70;;;6.40;;
65393;SDS011;52002;49.760;6.512;2023-06-22T10:39:44;9.00;;;6.20;;
65393;SDS011;52002;49.760;6.512;2023-06-22T10:42:10;13.10;;;6.30;;
65393;SDS011;52002;49.760;6.512;2023-06-22T10:44:36;8.60;;;6.70;;
65393;SDS011;52002;49.760;6.512;2023-06-22T10:47:02;17.40;;;6.80;;
65393;SDS011;52002;49.760;6.512;2023-06-22T10:49:27;12.30;;;6.10;;
65393;SDS011;52002;49.760;6.512;2023-06-22T10:51:52;8.00;;;5.90;;
65393;SDS011;52002;49.760;6.512;2023-06-22T10:54:18;9.80;;;6.00;;
65393;SDS011;52002;49.760;6.512;2023-06-22T10:56:44;7.20;;;5.90;;
65393;SDS011;52002;49.760;6.512;2023-06-22T10:59:09;10.20;;;6.20;;
65393;SDS011;52002;49.760;6.512;2023-06-22T11:01:35;19.60;;;6.20;;
65393;SDS011;52002;49.760;6.512;2023-06-22T11:04:02;7.20;;;5.80;;
65393;SDS011;52002;49.760;6.512;2023-06-22T11:06:28;8.80;;;6.20;;
65393;SDS011;52002;49.760;6.512;2023-06-22T11:08:53;9.80;;;6.10;;
65393;SDS011;52002;49.760;6.512;2023-06-22T11:11:19;10.90;;;6.20;;
65393;SDS011;52002;49.760;6.512;2023-06-22T11:13:44;13.70;;;5.90;;
65393;SDS011;52002;49.760;6.512;2023-06-22T11:16:09;13.60;;;6.00;;
65393;SDS011;52002;49.760;6.512;2023-06-22T11:18:35;7.70;;;5.60;;
65393;SDS011;52002;49.760;6.512;2023-06-22T11:21:00;6.60;;;5.50;;
65393;SDS011;52002;49.760;6.512;2023-06-22T11:23:26;5.60;;;5.00;;
65393;SDS011;52002;49.760;6.512;2023-06-22T11:25:52;8.70;;;6.00;;
65393;SDS011;52002;49.760;6.512;2023-06-22T11:28:18;7.50;;;6.10;;
65393;SDS011;52002;49.760;6.512;2023-06-22T11:30:43;9.60;;;5.70;;
65393;SDS011;52002;49.760;6.512;2023-06-22T11:33:09;9.40;;;5.80;;
65393;SDS011;52002;49.760;6.512;2023-06-22T11:35:34;9.60;;;5.70;;
65393;SDS011;52002;49.760;6.512;2023-06-22T11:37:59;9.40;;;5.40;;
65393;SDS011;52002;49.760;6.512;2023-06-22T11:40:25;7.20;;;5.60;;
65393;SDS011;52002;49.760;6.512;2023-06-22T11:42:50;8.40;;;5.40;;
65393;SDS011;52002;49.760;6.512;2023-06-22T11:45:15;14.30;;;5.40;;
65393;SDS011;52002;49.760;6.512;2023-06-22T11:47:42;7.50;;;5.50;;
65393;SDS011;52002;49.760;6.512;2023-06-22T11:50:08;9.80;;;5.70;;
65393;SDS011;52002;49.760;6.512;2023-06-22T11:52:34;8.70;;;5.20;;
65393;SDS011;52002;49.760;6.512;2023-06-22T11:55:01;9.80;;;5.40;;
65393;SDS011;52002;49.760;6.512;2023-06-22T11:57:28;10.60;;;5.60;;
65393;SDS011;52002;49.760;6.512;2023-06-22T11:59:54;10.30;;;5.10;;
65393;SDS011;52002;49.760;6.512;2023-06-22T12:02:19;8.90;;;5.90;;
65393;SDS011;52002;49.760;6.512;2023-06-22T12:04:45;11.10;;;5.20;;
65393;SDS011;52002;49.760;6.512;2023-06-22T12:07:10;13.00;;;5.20;;
65393;SDS011;52002;49.760;6.512;2023-06-22T12:09:36;6.50;;;5.00;;
65393;SDS011;52002;49.760;6.512;2023-06-22T12:12:01;6.80;;;4.80;;
65393;SDS011;52002;49.760;6.512;2023-06-22T12:14:26;6.80;;;5.10;;
65393;SDS011;52002;49.760;6.512;2023-06-22T12:16:52;9.90;;;5.00;;
65393;SDS011;52002;49.760;6.512;2023-06-22T12:19:17;8.40;;;5.20;;
65393;SDS011;52002;49.760;6.512;2023-06-22T12:21:42;8.40;;;5.60;;
65393;SDS011;52002;49.760;6.512;2023-06-22T12:24:10;6.20;;;5.00;;
65393;SDS011;52002;49.760;6.512;2023-06-22T12:26:35;15.50;;;5.20;;
65393;SDS011;52002;49.760;6.512;2023-06-22T12:29:01;6.80;;;5.30;;
65393;SDS011;52002;49.760;6.512;2023-06-22T12:31:26;10.30;;;5.40;;
65393;SDS011;52002;49.760;6.512;2023-06-22T12:33:51;10.30;;;5.30;;
65393;SDS011;52002;49.760;6.512;2023-06-22T12:36:17;8.70;;;5.30;;
65393;SDS011;52002;49.760;6.512;2023-06-22T12:38:42;12.10;;;5.40;;
65393;SDS011;52002;49.760;6.512;2023-06-22T12:41:08;8.40;;;5.20;;
65393;SDS011;52002;49.760;6.512;2023-06-22T12:43:33;11.50;;;6.10;;
65393;SDS011;52002;49.760;6.512;2023-06-22T12:45:58;11.00;;;5.50;;
65393;SDS011;52002;49.760;6.512;2023-06-22T12:48:25;9.60;;;5.30;;
65393;SDS011;52002;49.760;6.512;2023-06-22T12:50:53;8.00;;;5.40;;
65393;SDS011;52002;49.760;6.512;2023-06-22T12:53:19;6.40;;;5.20;;
65393;SDS011;52002;49.760;6.512;2023-06-22T12:55:44;6.20;;;5.40;;
65393;SDS011;52002;49.760;6.512;2023-06-22T12:58:09;9.90;;;5.80;;
65393;SDS011;52002;49.760;6.512;2023-06-22T13:00:35;8.40;;;6.80;;
65393;SDS011;52002;49.760;6.512;2023-06-22T13:03:00;8.40;;;5.80;;
65393;SDS011;52002;49.760;6.512;2023-06-22T13:05:26;8.70;;;5.30;;
65393;SDS011;52002;49.760;6.512;2023-06-22T13:07:51;11.50;;;5.20;;
65393;SDS011;52002;49.760;6.512;2023-06-22T13:10:17;7.50;;;5.10;;
65393;SDS011;52002;49.760;6.512;2023-06-22T13:12:42;6.30;;;4.70;;
65393;SDS011;52002;49.760;6.512;2023-06-22T13:15:07;8.30;;;5.40;;
65393;SDS011;52002;49.760;6.512;2023-06-22T13:17:33;40.70;;;6.60;;
65393;SDS011;52002;49.760;6.512;2023-06-22T13:19:58;20.90;;;7.50;;
65393;SDS011;52002;49.760;6.512;2023-06-22T13:22:28;20.00;;;7.10;;
65393;SDS011;52002;49.760;6.512;2023-06-22T13:24:59;29.50;;;7.00;;
65393;SDS011;52002;49.760;6.512;2023-06-22T13:27:25;19.10;;;4.00;;
65393;SDS011;52002;49.760;6.512;2023-06-22T13:29:50;11.30;;;4.00;;
65393;SDS011;52002;49.760;6.512;2023-06-22T13:32:16;12.70;;;3.80;;
65393;SDS011;52002;49.760;6.512;2023-06-22T13:34:42;7.10;;;3.10;;
65393;SDS011;52002;49.760;6.512;2023-06-22T13:37:08;12.30;;;3.30;;
65393;SDS011;52002;49.760;6.512;2023-06-22T13:39:33;17.80;;;4.40;;
65393;SDS011;52002;49.760;6.512;2023-06-22T13:41:59;30.60;;;3.40;;
65393;SDS011;52002;49.760;6.512;2023-06-22T13:44:24;12.50;;;3.60;;
65393;SDS011;52002;49.760;6.512;2023-06-22T13:46:54;29.80;;;4.60;;
65393;SDS011;52002;49.760;6.512;2023-06-22T13:49:19;12.90;;;4.40;;
65393;SDS011;52002;49.760;6.512;2023-06-22T13:51:45;31.40;;;3.60;;
65393;SDS011;52002;49.760;6.512;2023-06-22T13:54:13;9.00;;;3.80;;
65393;SDS011;52002;49.760;6.512;2023-06-22T13:56:38;8.10;;;3.60;;
65393;SDS011;52002;49.760;6.512;2023-06-22T13:59:04;14.90;;;3.40;;
65393;SDS011;52002;49.760;6.512;2023-06-22T14:01:29;24.30;;;3.40;;
65393;SDS011;52002;49.760;6.512;2023-06-22T14:03:54;13.30;;;3.50;;
65393;SDS011;52002;49.760;6.512;2023-06-22T14:06:20;15.30;;;4.60;;
65393;SDS011;52002;49.760;6.512;2023-06-22T14:08:45;14.30;;;3.50;;
65393;SDS011;52002;49.760;6.512;2023-06-22T14:11:10;20.70;;;3.60;;
65393;SDS011;52002;49.760;6.512;2023-06-22T14:13:36;11.50;;;3.10;;
65393;SDS011;52002;49.760;6.512;2023-06-22T14:16:01;24.00;;;4.30;;
65393;SDS011;52002;49.760;6.512;2023-06-22T14:18:27;9.60;;;3.50;;
65393;SDS011;52002;49.760;6.512;2023-06-22T14:20:52;12.20;;;3.30;;
65393;SDS011;52002;49.760;6.512;2023-06-22T14:23:17;11.40;;;2.90;;
65393;SDS011;52002;49.760;6.512;2023-06-22T14:25:43;12.20;;;2.60;;
65393;SDS011;52002;49.760;6.512;2023-06-22T14:28:08;14.50;;;2.80;;
65393;SDS011;52002;49.760;6.512;2023-06-22T14:30:33;6.30;;;3.00;;
65393;SDS011;52002;49.760;6.512;2023-06-22T14:32:59;10.20;;;2.90;;
65393;SDS011;52002;49.760;6.512;2023-06-22T14:35:24;7.90;;;3.20;;
65393;SDS011;52002;49.760;6.512;2023-06-22T14:37:50;11.30;;;3.00;;
65393;SDS011;52002;49.760;6.512;2023-06-22T14:40:15;6.20;;;2.60;;
65393;SDS011;52002;49.760;6.512;2023-06-22T14:42:41;9.20;;;2.40;;
65393;SDS011;52002;49.760;6.512;2023-06-22T14:45:06;5.50;;;2.80;;
65393;SDS011;52002;49.760;6.512;2023-06-22T14:47:32;6.90;;;2.20;;
65393;SDS011;52002;49.760;6.512;2023-06-22T14:49:57;9.10;;;2.60;;
65393;SDS011;52002;49.760;6.512;2023-06-22T14:52:25;9.20;;;2.50;;
65393;SDS011;52002;49.760;6.512;2023-06-22T14:54:50;7.20;;;2.80;;